sensor_id;sensor_type;location;lat;lon;timestamp;P1;durP1;ratioP1;P2;durP2;ratioP2
11303;SDS011;5707;49.588;12.148;2023-05-07T00:01:44;4.68;;;4.28;;
11303;SDS011;5707;49.588;12.148;2023-05-07T00:04:10;4.57;;;4.28;;
11303;SDS011;5707;49.588;12.148;2023-05-07T00:06:35;6.15;;;4.95;;
11303;SDS011;5707;49.588;12.148;2023-05-07T00:09:01;4.70;;;4.40;;
11303;SDS011;5707;49.588;12.148;2023-05-07T00:11:27;5.47;;;4.90;;
11303;SDS011;5707;49.588;12.148;2023-05-07T00:13:53;5.03;;;4.72;;
11303;SDS011;5707;49.588;12.148;2023-05-07T00:16:19;5.35;;;4.95;;
11303;SDS011;5707;49.588;12.148;2023-05-07T00:18:44;5.25;;;4.90;;
11303;SDS011;5707;49.588;12.148;2023-05-07T00:21:10;6.70;;;4.75;;
11303;SDS011;5707;49.588;12.148;2023-05-07T00:23:36;4.93;;;4.63;;
11303;SDS011;5707;49.588;12.148;2023-05-07T00:26:02;4.88;;;4.57;;
11303;SDS011;5707;49.588;12.148;2023-05-07T00:28:28;4.65;;;4.22;;
11303;SDS011;5707;49.588;12.148;2023-05-07T00:30:54;5.38;;;4.97;;
11303;SDS011;5707;49.588;12.148;2023-05-07T00:33:19;5.28;;;4.90;;
11303;SDS011;5707;49.588;12.148;2023-05-07T00:35:45;5.57;;;5.28;;
11303;SDS011;5707;49.588;12.148;2023-05-07T00:38:11;5.70;;;5.28;;
11303;SDS011;5707;49.588;12.148;2023-05-07T00:40:37;5.82;;;5.43;;
11303;SDS011;5707;49.588;12.148;2023-05-07T00:43:02;6.05;;;5.55;;
11303;SDS011;5707;49.588;12.148;2023-05-07T00:45:28;5.95;;;5.55;;
11303;SDS011;5707;49.588;12.148;2023-05-07T00:47:58;6.25;;;5.65;;
11303;SDS011;5707;49.588;12.148;2023-05-07T00:50:25;6.38;;;5.97;;
11303;SDS011;5707;49.588;12.148;2023-05-07T00:52:52;6.50;;;6.10;;
11303;SDS011;5707;49.588;12.148;2023-05-07T00:55:18;6.32;;;5.85;;
11303;SDS011;5707;49.588;12.148;2023-05-07T00:57:45;5.85;;;5.45;;
11303;SDS011;5707;49.588;12.148;2023-05-07T01:00:10;6.10;;;5.70;;
11303;SDS011;5707;49.588;12.148;2023-05-07T01:02:40;6.93;;;6.43;;
11303;SDS011;5707;49.588;12.148;2023-05-07T01:05:07;5.63;;;5.32;;
11303;SDS011;5707;49.588;12.148;2023-05-07T01:07:35;6.43;;;5.93;;
11303;SDS011;5707;49.588;12.148;2023-05-07T01:10:02;6.65;;;6.25;;
11303;SDS011;5707;49.588;12.148;2023-05-07T01:12:28;6.25;;;5.82;;
11303;SDS011;5707;49.588;12.148;2023-05-07T01:14:54;6.93;;;6.38;;
11303;SDS011;5707;49.588;12.148;2023-05-07T01:17:20;6.10;;;5.60;;
11303;SDS011;5707;49.588;12.148;2023-05-07T01:19:45;8.73;;;6.15;;
11303;SDS011;5707;49.588;12.148;2023-05-07T01:22:12;6.20;;;5.78;;
11303;SDS011;5707;49.588;12.148;2023-05-07T01:24:41;6.72;;;5.95;;
11303;SDS011;5707;49.588;12.148;2023-05-07T01:27:07;6.45;;;6.00;;
11303;SDS011;5707;49.588;12.148;2023-05-07T01:29:33;7.10;;;6.50;;
11303;SDS011;5707;49.588;12.148;2023-05-07T01:32:00;6.93;;;6.43;;
11303;SDS011;5707;49.588;12.148;2023-05-07T01:34:30;6.43;;;6.07;;
11303;SDS011;5707;49.588;12.148;2023-05-07T01:36:57;6.80;;;6.40;;
11303;SDS011;5707;49.588;12.148;2023-05-07T01:39:24;7.35;;;6.65;;
11303;SDS011;5707;49.588;12.148;2023-05-07T01:41:53;6.80;;;6.30;;
11303;SDS011;5707;49.588;12.148;2023-05-07T01:44:20;7.75;;;7.15;;
11303;SDS011;5707;49.588;12.148;2023-05-07T01:46:47;7.32;;;6.82;;
11303;SDS011;5707;49.588;12.148;2023-05-07T01:49:13;7.63;;;7.15;;
11303;SDS011;5707;49.588;12.148;2023-05-07T01:51:39;6.97;;;6.57;;
11303;SDS011;5707;49.588;12.148;2023-05-07T01:54:05;7.10;;;6.60;;
11303;SDS011;5707;49.588;12.148;2023-05-07T01:56:31;7.93;;;7.22;;
11303;SDS011;5707;49.588;12.148;2023-05-07T01:58:57;7.97;;;6.88;;
11303;SDS011;5707;49.588;12.148;2023-05-07T02:01:22;7.38;;;6.88;;
11303;SDS011;5707;49.588;12.148;2023-05-07T02:03:48;7.10;;;6.47;;
11303;SDS011;5707;49.588;12.148;2023-05-07T02:06:14;7.22;;;6.63;;
11303;SDS011;5707;49.588;12.148;2023-05-07T02:08:39;7.20;;;6.70;;
11303;SDS011;5707;49.588;12.148;2023-05-07T02:11:05;6.97;;;6.43;;
11303;SDS011;5707;49.588;12.148;2023-05-07T02:13:31;7.55;;;7.05;;
11303;SDS011;5707;49.588;12.148;2023-05-07T02:15:58;7.80;;;7.20;;
11303;SDS011;5707;49.588;12.148;2023-05-07T02:18:23;8.30;;;7.70;;
11303;SDS011;5707;49.588;12.148;2023-05-07T02:20:49;6.85;;;6.25;;
11303;SDS011;5707;49.588;12.148;2023-05-07T02:23:15;7.60;;;7.03;;
11303;SDS011;5707;49.588;12.148;2023-05-07T02:25:40;7.55;;;7.05;;
11303;SDS011;5707;49.588;12.148;2023-05-07T02:28:06;7.47;;;7.00;;
11303;SDS011;5707;49.588;12.148;2023-05-07T02:30:31;7.07;;;6.63;;
11303;SDS011;5707;49.588;12.148;2023-05-07T02:32:57;7.20;;;6.50;;
11303;SDS011;5707;49.588;12.148;2023-05-07T02:35:24;7.45;;;6.93;;
11303;SDS011;5707;49.588;12.148;2023-05-07T02:37:50;7.03;;;6.53;;
11303;SDS011;5707;49.588;12.148;2023-05-07T02:40:15;6.63;;;6.03;;
11303;SDS011;5707;49.588;12.148;2023-05-07T02:42:41;6.93;;;6.50;;
11303;SDS011;5707;49.588;12.148;2023-05-07T02:45:07;7.18;;;6.68;;
11303;SDS011;5707;49.588;12.148;2023-05-07T02:47:33;6.25;;;5.82;;
11303;SDS011;5707;49.588;12.148;2023-05-07T02:49:58;8.05;;;7.45;;
11303;SDS011;5707;49.588;12.148;2023-05-07T02:52:24;7.13;;;6.57;;
11303;SDS011;5707;49.588;12.148;2023-05-07T02:54:49;8.57;;;7.97;;
11303;SDS011;5707;49.588;12.148;2023-05-07T02:57:15;8.05;;;7.55;;
11303;SDS011;5707;49.588;12.148;2023-05-07T02:59:41;8.05;;;7.55;;
11303;SDS011;5707;49.588;12.148;2023-05-07T03:02:07;7.53;;;7.03;;
11303;SDS011;5707;49.588;12.148;2023-05-07T03:04:32;8.10;;;7.50;;
11303;SDS011;5707;49.588;12.148;2023-05-07T03:06:58;8.05;;;7.38;;
11303;SDS011;5707;49.588;12.148;2023-05-07T03:09:24;8.15;;;7.65;;
11303;SDS011;5707;49.588;12.148;2023-05-07T03:11:49;8.57;;;7.97;;
11303;SDS011;5707;49.588;12.148;2023-05-07T03:14:16;7.85;;;7.35;;
11303;SDS011;5707;49.588;12.148;2023-05-07T03:16:41;8.07;;;7.38;;
11303;SDS011;5707;49.588;12.148;2023-05-07T03:19:07;8.07;;;7.57;;
11303;SDS011;5707;49.588;12.148;2023-05-07T03:21:32;8.90;;;8.18;;
11303;SDS011;5707;49.588;12.148;2023-05-07T03:23:59;7.97;;;7.47;;
11303;SDS011;5707;49.588;12.148;2023-05-07T03:26:25;7.97;;;7.38;;
11303;SDS011;5707;49.588;12.148;2023-05-07T03:28:51;7.95;;;7.43;;
11303;SDS011;5707;49.588;12.148;2023-05-07T03:31:16;9.40;;;8.65;;
11303;SDS011;5707;49.588;12.148;2023-05-07T03:33:52;8.05;;;7.35;;
11303;SDS011;5707;49.588;12.148;2023-05-07T03:36:19;8.57;;;7.97;;
11303;SDS011;5707;49.588;12.148;2023-05-07T03:38:45;9.95;;;8.95;;
11303;SDS011;5707;49.588;12.148;2023-05-07T03:41:11;9.35;;;8.65;;
11303;SDS011;5707;49.588;12.148;2023-05-07T03:43:37;8.55;;;7.95;;
11303;SDS011;5707;49.588;12.148;2023-05-07T03:46:02;9.45;;;8.75;;
11303;SDS011;5707;49.588;12.148;2023-05-07T03:48:28;9.70;;;8.85;;
11303;SDS011;5707;49.588;12.148;2023-05-07T03:50:53;9.55;;;8.93;;
11303;SDS011;5707;49.588;12.148;2023-05-07T03:53:19;10.15;;;9.38;;
11303;SDS011;5707;49.588;12.148;2023-05-07T03:55:44;9.00;;;8.40;;
11303;SDS011;5707;49.588;12.148;2023-05-07T03:58:10;10.02;;;9.32;;
11303;SDS011;5707;49.588;12.148;2023-05-07T04:00:35;9.77;;;9.18;;
11303;SDS011;5707;49.588;12.148;2023-05-07T04:03:03;10.13;;;9.32;;
11303;SDS011;5707;49.588;12.148;2023-05-07T04:05:30;9.77;;;8.98;;
11303;SDS011;5707;49.588;12.148;2023-05-07T04:07:57;9.52;;;8.82;;
11303;SDS011;5707;49.588;12.148;2023-05-07T04:10:23;10.55;;;9.68;;
11303;SDS011;5707;49.588;12.148;2023-05-07T04:12:49;9.05;;;8.38;;
11303;SDS011;5707;49.588;12.148;2023-05-07T04:15:14;9.90;;;9.15;;
11303;SDS011;5707;49.588;12.148;2023-05-07T04:17:40;9.50;;;8.80;;
11303;SDS011;5707;49.588;12.148;2023-05-07T04:20:08;9.65;;;9.05;;
11303;SDS011;5707;49.588;12.148;2023-05-07T04:22:35;10.38;;;9.50;;
11303;SDS011;5707;49.588;12.148;2023-05-07T04:25:01;10.05;;;9.35;;
11303;SDS011;5707;49.588;12.148;2023-05-07T04:27:27;10.10;;;9.30;;
11303;SDS011;5707;49.588;12.148;2023-05-07T04:29:53;10.73;;;9.70;;
11303;SDS011;5707;49.588;12.148;2023-05-07T04:32:20;9.98;;;9.18;;
11303;SDS011;5707;49.588;12.148;2023-05-07T04:34:47;11.23;;;10.23;;
11303;SDS011;5707;49.588;12.148;2023-05-07T04:37:12;10.95;;;10.07;;
11303;SDS011;5707;49.588;12.148;2023-05-07T04:39:38;10.25;;;9.43;;
11303;SDS011;5707;49.588;12.148;2023-05-07T04:42:03;10.95;;;9.98;;
11303;SDS011;5707;49.588;12.148;2023-05-07T04:44:29;9.98;;;9.30;;
11303;SDS011;5707;49.588;12.148;2023-05-07T04:46:56;11.23;;;10.32;;
11303;SDS011;5707;49.588;12.148;2023-05-07T04:49:21;11.43;;;10.48;;
11303;SDS011;5707;49.588;12.148;2023-05-07T04:51:47;10.73;;;10.02;;
11303;SDS011;5707;49.588;12.148;2023-05-07T04:54:13;10.32;;;9.52;;
11303;SDS011;5707;49.588;12.148;2023-05-07T04:56:38;10.75;;;9.95;;
11303;SDS011;5707;49.588;12.148;2023-05-07T04:59:04;10.40;;;9.52;;
11303;SDS011;5707;49.588;12.148;2023-05-07T05:01:30;10.25;;;9.35;;
11303;SDS011;5707;49.588;12.148;2023-05-07T05:03:56;9.95;;;9.25;;
11303;SDS011;5707;49.588;12.148;2023-05-07T05:06:21;10.45;;;9.38;;
11303;SDS011;5707;49.588;12.148;2023-05-07T05:08:47;10.60;;;9.80;;
11303;SDS011;5707;49.588;12.148;2023-05-07T05:11:13;10.27;;;9.57;;
11303;SDS011;5707;49.588;12.148;2023-05-07T05:13:38;10.90;;;10.00;;
11303;SDS011;5707;49.588;12.148;2023-05-07T05:16:04;10.43;;;9.63;;
11303;SDS011;5707;49.588;12.148;2023-05-07T05:18:30;10.18;;;9.48;;
11303;SDS011;5707;49.588;12.148;2023-05-07T05:20:56;9.35;;;8.70;;
11303;SDS011;5707;49.588;12.148;2023-05-07T05:23:22;11.38;;;10.38;;
11303;SDS011;5707;49.588;12.148;2023-05-07T05:25:47;10.77;;;9.65;;
11303;SDS011;5707;49.588;12.148;2023-05-07T05:28:13;9.75;;;9.13;;
11303;SDS011;5707;49.588;12.148;2023-05-07T05:30:38;11.10;;;10.23;;
11303;SDS011;5707;49.588;12.148;2023-05-07T05:33:04;9.95;;;9.10;;
11303;SDS011;5707;49.588;12.148;2023-05-07T05:35:30;10.40;;;9.65;;
11303;SDS011;5707;49.588;12.148;2023-05-07T05:37:56;9.82;;;9.07;;
11303;SDS011;5707;49.588;12.148;2023-05-07T05:40:22;9.73;;;9.00;;
11303;SDS011;5707;49.588;12.148;2023-05-07T05:42:47;9.90;;;9.20;;
11303;SDS011;5707;49.588;12.148;2023-05-07T05:45:13;9.82;;;9.10;;
11303;SDS011;5707;49.588;12.148;2023-05-07T05:47:38;10.20;;;9.40;;
11303;SDS011;5707;49.588;12.148;2023-05-07T05:50:05;9.75;;;9.05;;
11303;SDS011;5707;49.588;12.148;2023-05-07T05:52:31;10.55;;;9.50;;
11303;SDS011;5707;49.588;12.148;2023-05-07T05:54:57;9.88;;;9.18;;
11303;SDS011;5707;49.588;12.148;2023-05-07T05:57:22;9.50;;;8.82;;
11303;SDS011;5707;49.588;12.148;2023-05-07T05:59:48;10.13;;;9.23;;
11303;SDS011;5707;49.588;12.148;2023-05-07T06:02:13;10.63;;;9.85;;
11303;SDS011;5707;49.588;12.148;2023-05-07T06:04:39;10.95;;;10.25;;
11303;SDS011;5707;49.588;12.148;2023-05-07T06:07:05;10.55;;;9.65;;
11303;SDS011;5707;49.588;12.148;2023-05-07T06:09:30;10.50;;;9.70;;
11303;SDS011;5707;49.588;12.148;2023-05-07T06:11:56;11.57;;;10.68;;
11303;SDS011;5707;49.588;12.148;2023-05-07T06:14:21;11.75;;;10.60;;
11303;SDS011;5707;49.588;12.148;2023-05-07T06:16:47;12.43;;;11.43;;
11303;SDS011;5707;49.588;12.148;2023-05-07T06:19:13;12.07;;;10.85;;
11303;SDS011;5707;49.588;12.148;2023-05-07T06:21:39;12.23;;;11.32;;
11303;SDS011;5707;49.588;12.148;2023-05-07T06:24:05;12.68;;;11.57;;
11303;SDS011;5707;49.588;12.148;2023-05-07T06:26:31;12.48;;;11.43;;
11303;SDS011;5707;49.588;12.148;2023-05-07T06:28:56;12.50;;;11.63;;
11303;SDS011;5707;49.588;12.148;2023-05-07T06:31:22;12.07;;;11.18;;
11303;SDS011;5707;49.588;12.148;2023-05-07T06:33:48;12.43;;;11.40;;
11303;SDS011;5707;49.588;12.148;2023-05-07T06:36:14;11.75;;;10.75;;
11303;SDS011;5707;49.588;12.148;2023-05-07T06:38:40;11.30;;;10.38;;
11303;SDS011;5707;49.588;12.148;2023-05-07T06:41:06;11.73;;;10.77;;
11303;SDS011;5707;49.588;12.148;2023-05-07T06:43:31;12.95;;;11.95;;
11303;SDS011;5707;49.588;12.148;2023-05-07T06:45:57;11.73;;;10.63;;
11303;SDS011;5707;49.588;12.148;2023-05-07T06:48:23;10.82;;;10.02;;
11303;SDS011;5707;49.588;12.148;2023-05-07T06:50:48;11.52;;;10.73;;
11303;SDS011;5707;49.588;12.148;2023-05-07T06:53:14;11.77;;;10.65;;
11303;SDS011;5707;49.588;12.148;2023-05-07T06:55:39;11.55;;;10.65;;
11303;SDS011;5707;49.588;12.148;2023-05-07T06:58:06;10.05;;;9.25;;
11303;SDS011;5707;49.588;12.148;2023-05-07T07:00:32;10.95;;;9.95;;
11303;SDS011;5707;49.588;12.148;2023-05-07T07:02:57;10.73;;;9.82;;
11303;SDS011;5707;49.588;12.148;2023-05-07T07:05:24;12.88;;;11.63;;
11303;SDS011;5707;49.588;12.148;2023-05-07T07:07:50;10.98;;;10.10;;
11303;SDS011;5707;49.588;12.148;2023-05-07T07:10:20;10.75;;;9.77;;
11303;SDS011;5707;49.588;12.148;2023-05-07T07:12:48;11.40;;;10.60;;
11303;SDS011;5707;49.588;12.148;2023-05-07T07:15:15;10.77;;;9.93;;
11303;SDS011;5707;49.588;12.148;2023-05-07T07:17:41;12.00;;;10.70;;
11303;SDS011;5707;49.588;12.148;2023-05-07T07:20:07;11.57;;;10.65;;
11303;SDS011;5707;49.588;12.148;2023-05-07T07:22:32;10.82;;;10.00;;
11303;SDS011;5707;49.588;12.148;2023-05-07T07:24:58;10.73;;;9.93;;
11303;SDS011;5707;49.588;12.148;2023-05-07T07:27:24;10.93;;;10.02;;
11303;SDS011;5707;49.588;12.148;2023-05-07T07:29:50;10.77;;;9.98;;
11303;SDS011;5707;49.588;12.148;2023-05-07T07:32:16;10.70;;;9.57;;
11303;SDS011;5707;49.588;12.148;2023-05-07T07:34:41;13.73;;;12.52;;
11303;SDS011;5707;49.588;12.148;2023-05-07T07:37:07;10.25;;;9.27;;
11303;SDS011;5707;49.588;12.148;2023-05-07T07:39:32;10.73;;;9.93;;
11303;SDS011;5707;49.588;12.148;2023-05-07T07:41:58;10.45;;;9.73;;
11303;SDS011;5707;49.588;12.148;2023-05-07T07:44:24;10.27;;;9.57;;
11303;SDS011;5707;49.588;12.148;2023-05-07T07:46:50;9.85;;;9.13;;
11303;SDS011;5707;49.588;12.148;2023-05-07T07:49:15;11.27;;;10.40;;
11303;SDS011;5707;49.588;12.148;2023-05-07T07:51:41;10.77;;;9.98;;
11303;SDS011;5707;49.588;12.148;2023-05-07T07:54:07;11.18;;;10.27;;
11303;SDS011;5707;49.588;12.148;2023-05-07T07:56:33;10.45;;;9.75;;
11303;SDS011;5707;49.588;12.148;2023-05-07T07:58:59;11.70;;;10.80;;
11303;SDS011;5707;49.588;12.148;2023-05-07T08:01:24;11.50;;;10.68;;
11303;SDS011;5707;49.588;12.148;2023-05-07T08:03:50;10.27;;;9.50;;
11303;SDS011;5707;49.588;12.148;2023-05-07T08:06:16;10.95;;;10.15;;
11303;SDS011;5707;49.588;12.148;2023-05-07T08:08:42;12.30;;;11.30;;
11303;SDS011;5707;49.588;12.148;2023-05-07T08:11:07;10.90;;;10.00;;
11303;SDS011;5707;49.588;12.148;2023-05-07T08:13:33;9.50;;;8.90;;
11303;SDS011;5707;49.588;12.148;2023-05-07T08:15:59;9.50;;;8.80;;
11303;SDS011;5707;49.588;12.148;2023-05-07T08:18:25;9.60;;;8.90;;
11303;SDS011;5707;49.588;12.148;2023-05-07T08:20:53;10.02;;;9.23;;
11303;SDS011;5707;49.588;12.148;2023-05-07T08:23:18;8.98;;;8.38;;
11303;SDS011;5707;49.588;12.148;2023-05-07T08:25:44;9.95;;;9.05;;
11303;SDS011;5707;49.588;12.148;2023-05-07T08:28:09;9.63;;;8.70;;
11303;SDS011;5707;49.588;12.148;2023-05-07T08:30:36;10.52;;;9.60;;
11303;SDS011;5707;49.588;12.148;2023-05-07T08:33:02;9.13;;;8.48;;
11303;SDS011;5707;49.588;12.148;2023-05-07T08:35:27;10.30;;;9.50;;
11303;SDS011;5707;49.588;12.148;2023-05-07T08:37:53;8.70;;;7.90;;
11303;SDS011;5707;49.588;12.148;2023-05-07T08:40:19;10.13;;;9.32;;
11303;SDS011;5707;49.588;12.148;2023-05-07T08:42:45;9.35;;;8.65;;
11303;SDS011;5707;49.588;12.148;2023-05-07T08:45:14;9.43;;;8.73;;
11303;SDS011;5707;49.588;12.148;2023-05-07T08:47:44;9.77;;;8.88;;
11303;SDS011;5707;49.588;12.148;2023-05-07T08:50:12;9.38;;;8.70;;
11303;SDS011;5707;49.588;12.148;2023-05-07T08:52:39;9.70;;;9.00;;
11303;SDS011;5707;49.588;12.148;2023-05-07T08:55:08;9.38;;;8.57;;
11303;SDS011;5707;49.588;12.148;2023-05-07T08:57:34;9.55;;;8.75;;
11303;SDS011;5707;49.588;12.148;2023-05-07T09:00:00;8.98;;;8.27;;
11303;SDS011;5707;49.588;12.148;2023-05-07T09:02:26;10.10;;;9.40;;
11303;SDS011;5707;49.588;12.148;2023-05-07T09:04:52;9.63;;;8.93;;
11303;SDS011;5707;49.588;12.148;2023-05-07T09:07:18;10.95;;;8.60;;
11303;SDS011;5707;49.588;12.148;2023-05-07T09:09:44;10.77;;;9.98;;
11303;SDS011;5707;49.588;12.148;2023-05-07T09:12:11;10.20;;;9.50;;
11303;SDS011;5707;49.588;12.148;2023-05-07T09:14:36;9.57;;;8.80;;
11303;SDS011;5707;49.588;12.148;2023-05-07T09:17:02;8.88;;;7.93;;
11303;SDS011;5707;49.588;12.148;2023-05-07T09:19:28;9.10;;;8.40;;
11303;SDS011;5707;49.588;12.148;2023-05-07T09:22:03;9.20;;;8.50;;
11303;SDS011;5707;49.588;12.148;2023-05-07T09:24:31;8.68;;;8.07;;
11303;SDS011;5707;49.588;12.148;2023-05-07T09:27:00;9.02;;;8.32;;
11303;SDS011;5707;49.588;12.148;2023-05-07T09:29:27;9.38;;;8.68;;
11303;SDS011;5707;49.588;12.148;2023-05-07T09:32:00;8.43;;;7.82;;
11303;SDS011;5707;49.588;12.148;2023-05-07T09:34:27;8.73;;;8.13;;
11303;SDS011;5707;49.588;12.148;2023-05-07T09:36:53;7.25;;;6.75;;
11303;SDS011;5707;49.588;12.148;2023-05-07T09:39:19;9.52;;;7.70;;
11303;SDS011;5707;49.588;12.148;2023-05-07T09:41:45;8.70;;;8.10;;
11303;SDS011;5707;49.588;12.148;2023-05-07T09:44:12;8.43;;;7.65;;
11303;SDS011;5707;49.588;12.148;2023-05-07T09:46:39;8.07;;;7.47;;
11303;SDS011;5707;49.588;12.148;2023-05-07T09:49:07;8.25;;;7.60;;
11303;SDS011;5707;49.588;12.148;2023-05-07T09:51:46;7.82;;;7.35;;
11303;SDS011;5707;49.588;12.148;2023-05-07T09:54:15;7.13;;;6.60;;
11303;SDS011;5707;49.588;12.148;2023-05-07T09:56:42;8.40;;;7.60;;
11303;SDS011;5707;49.588;12.148;2023-05-07T09:59:13;7.90;;;7.40;;
11303;SDS011;5707;49.588;12.148;2023-05-07T10:01:40;7.43;;;6.82;;
11303;SDS011;5707;49.588;12.148;2023-05-07T10:04:07;9.10;;;8.23;;
11303;SDS011;5707;49.588;12.148;2023-05-07T10:06:34;7.55;;;7.05;;
11303;SDS011;5707;49.588;12.148;2023-05-07T10:09:00;9.60;;;6.95;;
11303;SDS011;5707;49.588;12.148;2023-05-07T10:11:27;8.05;;;7.45;;
11303;SDS011;5707;49.588;12.148;2023-05-07T10:13:53;7.13;;;6.53;;
11303;SDS011;5707;49.588;12.148;2023-05-07T10:16:19;7.78;;;7.07;;
11303;SDS011;5707;49.588;12.148;2023-05-07T10:18:46;7.60;;;7.10;;
11303;SDS011;5707;49.588;12.148;2023-05-07T10:21:16;7.18;;;6.65;;
11303;SDS011;5707;49.588;12.148;2023-05-07T10:23:48;7.68;;;7.07;;
11303;SDS011;5707;49.588;12.148;2023-05-07T10:26:15;8.43;;;7.85;;
11303;SDS011;5707;49.588;12.148;2023-05-07T10:28:44;7.38;;;6.88;;
11303;SDS011;5707;49.588;12.148;2023-05-07T10:33:56;7.13;;;6.53;;
11303;SDS011;5707;49.588;12.148;2023-05-07T10:36:23;7.10;;;6.38;;
11303;SDS011;5707;49.588;12.148;2023-05-07T10:38:50;6.53;;;6.13;;
11303;SDS011;5707;49.588;12.148;2023-05-07T10:41:16;6.85;;;6.35;;
11303;SDS011;5707;49.588;12.148;2023-05-07T10:43:44;6.60;;;6.10;;
11303;SDS011;5707;49.588;12.148;2023-05-07T10:51:25;8.00;;;7.40;;
11303;SDS011;5707;49.588;12.148;2023-05-07T10:56:41;7.35;;;6.75;;
11303;SDS011;5707;49.588;12.148;2023-05-07T11:01:58;7.22;;;6.72;;
11303;SDS011;5707;49.588;12.148;2023-05-07T11:04:28;6.85;;;6.35;;
11303;SDS011;5707;49.588;12.148;2023-05-07T11:15:05;7.57;;;6.97;;
11303;SDS011;5707;49.588;12.148;2023-05-07T11:17:32;6.82;;;6.32;;
11303;SDS011;5707;49.588;12.148;2023-05-07T11:19:59;6.80;;;6.30;;
11303;SDS011;5707;49.588;12.148;2023-05-07T11:25:04;5.60;;;5.10;;
11303;SDS011;5707;49.588;12.148;2023-05-07T11:27:31;7.25;;;6.05;;
11303;SDS011;5707;49.588;12.148;2023-05-07T11:29:58;5.85;;;5.45;;
11303;SDS011;5707;49.588;12.148;2023-05-07T11:32:27;5.55;;;5.15;;
11303;SDS011;5707;49.588;12.148;2023-05-07T11:34:54;5.13;;;4.72;;
11303;SDS011;5707;49.588;12.148;2023-05-07T11:37:21;5.28;;;4.85;;
11303;SDS011;5707;49.588;12.148;2023-05-07T11:39:48;4.75;;;4.45;;
11303;SDS011;5707;49.588;12.148;2023-05-07T11:44:59;5.25;;;4.85;;
11303;SDS011;5707;49.588;12.148;2023-05-07T11:47:25;4.80;;;4.32;;
11303;SDS011;5707;49.588;12.148;2023-05-07T11:49:52;4.93;;;4.60;;
11303;SDS011;5707;49.588;12.148;2023-05-07T11:52:19;5.35;;;4.95;;
11303;SDS011;5707;49.588;12.148;2023-05-07T11:54:52;4.32;;;4.03;;
11303;SDS011;5707;49.588;12.148;2023-05-07T11:57:23;4.45;;;4.15;;
11303;SDS011;5707;49.588;12.148;2023-05-07T11:59:52;4.43;;;4.07;;
11303;SDS011;5707;49.588;12.148;2023-05-07T12:02:22;4.70;;;4.40;;
11303;SDS011;5707;49.588;12.148;2023-05-07T12:04:49;4.32;;;4.03;;
11303;SDS011;5707;49.588;12.148;2023-05-07T12:07:15;4.22;;;4.00;;
11303;SDS011;5707;49.588;12.148;2023-05-07T12:09:42;4.97;;;4.57;;
11303;SDS011;5707;49.588;12.148;2023-05-07T12:12:08;4.93;;;4.10;;
11303;SDS011;5707;49.588;12.148;2023-05-07T12:14:37;4.50;;;4.05;;
11303;SDS011;5707;49.588;12.148;2023-05-07T12:17:10;4.10;;;3.80;;
11303;SDS011;5707;49.588;12.148;2023-05-07T12:19:37;3.72;;;3.42;;
11303;SDS011;5707;49.588;12.148;2023-05-07T12:22:04;3.95;;;3.65;;
11303;SDS011;5707;49.588;12.148;2023-05-07T12:24:46;3.45;;;3.25;;
11303;SDS011;5707;49.588;12.148;2023-05-07T12:27:16;3.42;;;3.05;;
11303;SDS011;5707;49.588;12.148;2023-05-07T12:29:49;4.05;;;3.75;;
11303;SDS011;5707;49.588;12.148;2023-05-07T12:32:20;4.38;;;4.07;;
11303;SDS011;5707;49.588;12.148;2023-05-07T12:34:46;4.60;;;4.22;;
11303;SDS011;5707;49.588;12.148;2023-05-07T12:37:15;4.03;;;3.72;;
11303;SDS011;5707;49.588;12.148;2023-05-07T12:39:44;4.03;;;3.72;;
11303;SDS011;5707;49.588;12.148;2023-05-07T12:42:14;3.95;;;3.75;;
11303;SDS011;5707;49.588;12.148;2023-05-07T12:44:41;3.80;;;3.50;;
11303;SDS011;5707;49.588;12.148;2023-05-07T12:47:10;3.35;;;3.13;;
11303;SDS011;5707;49.588;12.148;2023-05-07T12:49:37;3.22;;;3.00;;
11303;SDS011;5707;49.588;12.148;2023-05-07T12:52:03;3.58;;;3.38;;
11303;SDS011;5707;49.588;12.148;2023-05-07T12:54:30;3.50;;;3.28;;
11303;SDS011;5707;49.588;12.148;2023-05-07T12:59:35;3.13;;;2.92;;
11303;SDS011;5707;49.588;12.148;2023-05-07T13:02:02;3.10;;;2.90;;
11303;SDS011;5707;49.588;12.148;2023-05-07T13:04:28;2.88;;;2.67;;
11303;SDS011;5707;49.588;12.148;2023-05-07T13:06:53;2.53;;;2.40;;
11303;SDS011;5707;49.588;12.148;2023-05-07T13:09:19;3.40;;;3.10;;
11303;SDS011;5707;49.588;12.148;2023-05-07T13:11:45;2.85;;;2.65;;
11303;SDS011;5707;49.588;12.148;2023-05-07T13:14:10;2.55;;;2.35;;
11303;SDS011;5707;49.588;12.148;2023-05-07T13:16:36;4.40;;;2.58;;
11303;SDS011;5707;49.588;12.148;2023-05-07T13:19:02;2.90;;;2.70;;
11303;SDS011;5707;49.588;12.148;2023-05-07T13:21:27;3.25;;;3.00;;
11303;SDS011;5707;49.588;12.148;2023-05-07T13:23:53;2.90;;;2.70;;
11303;SDS011;5707;49.588;12.148;2023-05-07T13:26:18;2.90;;;2.70;;
11303;SDS011;5707;49.588;12.148;2023-05-07T13:28:45;2.65;;;2.50;;
11303;SDS011;5707;49.588;12.148;2023-05-07T13:31:11;2.53;;;2.35;;
11303;SDS011;5707;49.588;12.148;2023-05-07T13:33:36;4.18;;;2.28;;
11303;SDS011;5707;49.588;12.148;2023-05-07T13:36:02;2.45;;;2.28;;
11303;SDS011;5707;49.588;12.148;2023-05-07T13:38:30;2.40;;;2.20;;
11303;SDS011;5707;49.588;12.148;2023-05-07T13:40:56;2.92;;;2.72;;
11303;SDS011;5707;49.588;12.148;2023-05-07T13:43:21;3.20;;;2.40;;
11303;SDS011;5707;49.588;12.148;2023-05-07T13:45:47;2.70;;;2.50;;
11303;SDS011;5707;49.588;12.148;2023-05-07T13:48:12;2.58;;;2.38;;
11303;SDS011;5707;49.588;12.148;2023-05-07T13:50:38;2.35;;;2.20;;
11303;SDS011;5707;49.588;12.148;2023-05-07T13:53:03;2.50;;;2.40;;
11303;SDS011;5707;49.588;12.148;2023-05-07T13:55:29;2.60;;;2.40;;
11303;SDS011;5707;49.588;12.148;2023-05-07T13:57:56;2.20;;;2.00;;
11303;SDS011;5707;49.588;12.148;2023-05-07T14:00:23;2.38;;;2.17;;
11303;SDS011;5707;49.588;12.148;2023-05-07T14:02:50;2.78;;;2.45;;
11303;SDS011;5707;49.588;12.148;2023-05-07T14:05:15;2.63;;;2.42;;
11303;SDS011;5707;49.588;12.148;2023-05-07T14:07:41;4.70;;;2.90;;
11303;SDS011;5707;49.588;12.148;2023-05-07T14:10:06;2.35;;;2.25;;
11303;SDS011;5707;49.588;12.148;2023-05-07T14:12:32;3.10;;;2.70;;
11303;SDS011;5707;49.588;12.148;2023-05-07T14:14:58;3.03;;;2.83;;
11303;SDS011;5707;49.588;12.148;2023-05-07T14:17:24;3.15;;;2.90;;
11303;SDS011;5707;49.588;12.148;2023-05-07T14:19:51;2.92;;;2.70;;
11303;SDS011;5707;49.588;12.148;2023-05-07T14:22:21;2.47;;;2.38;;
11303;SDS011;5707;49.588;12.148;2023-05-07T14:24:47;3.15;;;2.53;;
11303;SDS011;5707;49.588;12.148;2023-05-07T14:27:14;2.88;;;2.67;;
11303;SDS011;5707;49.588;12.148;2023-05-07T14:29:40;3.13;;;2.80;;
11303;SDS011;5707;49.588;12.148;2023-05-07T14:32:05;2.45;;;2.30;;
11303;SDS011;5707;49.588;12.148;2023-05-07T14:34:31;3.03;;;2.55;;
11303;SDS011;5707;49.588;12.148;2023-05-07T14:36:57;2.95;;;2.75;;
11303;SDS011;5707;49.588;12.148;2023-05-07T14:39:23;2.50;;;2.40;;
11303;SDS011;5707;49.588;12.148;2023-05-07T14:41:48;3.85;;;2.38;;
11303;SDS011;5707;49.588;12.148;2023-05-07T14:44:14;2.10;;;2.00;;
11303;SDS011;5707;49.588;12.148;2023-05-07T14:46:40;2.75;;;2.55;;
11303;SDS011;5707;49.588;12.148;2023-05-07T14:49:05;2.90;;;2.70;;
11303;SDS011;5707;49.588;12.148;2023-05-07T14:51:31;2.65;;;2.45;;
11303;SDS011;5707;49.588;12.148;2023-05-07T14:53:58;3.25;;;3.00;;
11303;SDS011;5707;49.588;12.148;2023-05-07T14:56:23;3.20;;;2.60;;
11303;SDS011;5707;49.588;12.148;2023-05-07T14:58:49;3.15;;;2.95;;
11303;SDS011;5707;49.588;12.148;2023-05-07T15:01:15;3.08;;;2.45;;
11303;SDS011;5707;49.588;12.148;2023-05-07T15:03:40;2.80;;;2.60;;
11303;SDS011;5707;49.588;12.148;2023-05-07T15:06:06;3.10;;;2.90;;
11303;SDS011;5707;49.588;12.148;2023-05-07T15:08:32;2.60;;;2.40;;